Time;durP1;ratioP1;P1;durP2;ratioP2;P2;SDS_P1;SDS_P2;PMS_P1;PMS_P2;Temp;Humidity;BMP_temperature;BMP_pressure;BME280_temperature;BME280_humidity;BME280_pressure;Samples;Min_cycle;Max_cycle;Signal;HPM_P1;HPM_P2
2022/10/08 00:02:29;;;;;;;13.18;7.35;;;;;;;;;;6148423;23;20013;-80
2022/10/08 00:05:15;;;;;;;11.05;6.43;;;;;;;;;;6153937;23;20013;-79
2022/10/08 00:08:01;;;;;;;13.55;6.28;;;;;;;;;;6156807;23;20018;-68
2022/10/08 00:10:51;;;;;;;11.00;6.20;;;;;;;;;;6149306;23;20333;-80
2022/10/08 00:13:41;;;;;;;9.02;6.20;;;;;;;;;;6148036;23;20436;-80
2022/10/08 00:16:28;;;;;;;8.75;5.63;;;;;;;;;;6147720;23;20063;-81
2022/10/08 00:19:14;;;;;;;15.75;7.10;;;;;;;;;;6146477;23;20002;-81
2022/10/08 00:22:00;;;;;;;12.02;6.68;;;;;;;;;;6146431;23;20067;-81
2022/10/08 00:24:45;;;;;;;9.80;6.10;;;;;;;;;;6154378;23;20006;-80
2022/10/08 00:27:32;;;;;;;10.43;6.40;;;;;;;;;;6147085;23;20425;-78
2022/10/08 00:30:17;;;;;;;10.02;5.57;;;;;;;;;;6126524;22;20010;-78
2022/10/08 00:33:03;;;;;;;11.38;6.43;;;;;;;;;;6147509;23;20330;-79
2022/10/08 00:35:49;;;;;;;10.32;6.50;;;;;;;;;;6126611;23;20009;-78
2022/10/08 00:38:34;;;;;;;12.82;6.38;;;;;;;;;;6146421;23;20367;-78
2022/10/08 00:41:21;;;;;;;12.13;5.68;;;;;;;;;;6147768;23;20010;-78
2022/10/08 00:44:28;;;;;;;9.98;6.13;;;;;;;;;;6147197;23;20029;-78
2022/10/08 00:47:18;;;;;;;11.35;6.70;;;;;;;;;;6147039;23;20013;-72
2022/10/08 00:50:03;;;;;;;9.55;6.55;;;;;;;;;;6125791;23;20014;-71
2022/10/08 00:52:51;;;;;;;10.50;6.20;;;;;;;;;;6126783;23;20019;-70
2022/10/08 00:55:38;;;;;;;9.40;5.43;;;;;;;;;;6152506;23;20005;-71
2022/10/08 00:58:25;;;;;;;12.00;5.95;;;;;;;;;;6145933;22;20009;-71
2022/10/08 01:01:12;;;;;;;10.98;5.55;;;;;;;;;;6147011;23;20010;-72
2022/10/08 01:04:03;;;;;;;9.75;5.63;;;;;;;;;;6146321;23;20009;-80
2022/10/08 01:06:48;;;;;;;10.98;7.13;;;;;;;;;;6146136;23;20006;-71
2022/10/08 01:09:37;;;;;;;15.07;6.30;;;;;;;;;;6144237;23;20009;-71
2022/10/08 01:12:41;;;;;;;14.18;7.07;;;;;;;;;;6147070;23;20010;-71
2022/10/08 01:15:26;;;;;;;10.52;6.15;;;;;;;;;;6146876;23;20017;-70
2022/10/08 01:18:16;;;;;;;13.30;5.95;;;;;;;;;;6147092;23;20014;-71
2022/10/08 01:21:07;;;;;;;9.07;6.15;;;;;;;;;;6147004;23;20082;-81
2022/10/08 01:24:06;;;;;;;10.73;5.82;;;;;;;;;;6146707;23;20429;-81
2022/10/08 01:27:00;;;;;;;12.88;6.47;;;;;;;;;;6148460;23;20168;-82
2022/10/08 01:29:47;;;;;;;13.15;7.50;;;;;;;;;;6147517;23;20005;-82
2022/10/08 01:32:55;;;;;;;11.90;6.50;;;;;;;;;;6125949;22;20326;-81
2022/10/08 01:35:45;;;;;;;11.05;6.03;;;;;;;;;;6147221;23;20362;-81
2022/10/08 01:38:32;;;;;;;13.25;6.20;;;;;;;;;;6146552;23;20074;-81
2022/10/08 01:41:18;;;;;;;13.35;6.40;;;;;;;;;;6145737;23;20071;-70
2022/10/08 01:44:07;;;;;;;12.80;6.53;;;;;;;;;;6232856;22;20104;-73
2022/10/08 01:46:57;;;;;;;8.00;5.32;;;;;;;;;;6145264;23;20010;-74
2022/10/08 01:49:47;;;;;;;11.48;6.63;;;;;;;;;;6146176;23;20013;-73
2022/10/08 01:52:38;;;;;;;11.57;5.50;;;;;;;;;;6146009;23;20452;-74
2022/10/08 01:55:35;;;;;;;12.15;5.82;;;;;;;;;;6147019;23;20391;-75
2022/10/08 01:58:31;;;;;;;13.40;6.57;;;;;;;;;;6146754;23;20401;-81
2022/10/08 02:01:31;;;;;;;16.83;5.85;;;;;;;;;;6126866;23;20080;-73
2022/10/08 02:04:32;;;;;;;13.57;6.88;;;;;;;;;;6144873;23;20010;-74
2022/10/08 02:07:22;;;;;;;12.98;6.40;;;;;;;;;;6146403;23;20006;-73
2022/10/08 02:10:09;;;;;;;10.15;6.60;;;;;;;;;;6147100;23;20010;-73
2022/10/08 02:12:55;;;;;;;13.05;6.32;;;;;;;;;;6145467;23;20009;-72
2022/10/08 02:16:03;;;;;;;12.45;6.50;;;;;;;;;;6144193;23;20378;-70
2022/10/08 02:18:53;;;;;;;9.85;6.13;;;;;;;;;;6146096;23;20085;-70
2022/10/08 02:21:40;;;;;;;11.32;6.28;;;;;;;;;;6144397;23;20074;-70
2022/10/08 02:24:47;;;;;;;10.77;6.20;;;;;;;;;;6145891;23;20009;-72
2022/10/08 02:27:38;;;;;;;16.13;6.45;;;;;;;;;;6123713;23;20035;-71
2022/10/08 02:30:24;;;;;;;10.10;6.35;;;;;;;;;;6145855;23;20027;-70
2022/10/08 02:33:16;;;;;;;11.25;6.05;;;;;;;;;;6129275;23;20431;-71
2022/10/08 02:36:03;;;;;;;10.93;6.03;;;;;;;;;;6150852;22;20009;-69
2022/10/08 02:38:51;;;;;;;14.75;6.03;;;;;;;;;;6145496;23;20063;-72
2022/10/08 02:41:39;;;;;;;7.63;5.20;;;;;;;;;;6145588;23;20014;-70
2022/10/08 02:44:31;;;;;;;16.17;6.32;;;;;;;;;;6146824;23;20374;-72
2022/10/08 02:47:19;;;;;;;8.80;5.32;;;;;;;;;;6145314;23;20068;-71
2022/10/08 02:50:08;;;;;;;7.97;6.00;;;;;;;;;;6146040;23;20306;-72
2022/10/08 02:52:54;;;;;;;10.55;5.03;;;;;;;;;;6145372;23;20071;-69
2022/10/08 02:55:46;;;;;;;8.50;5.25;;;;;;;;;;6146788;23;20033;-74
2022/10/08 02:58:32;;;;;;;8.90;5.53;;;;;;;;;;6146129;23;20006;-74
2022/10/08 03:01:25;;;;;;;8.32;5.55;;;;;;;;;;6145288;23;20009;-74
2022/10/08 03:04:16;;;;;;;10.35;5.72;;;;;;;;;;6153294;23;20009;-74
2022/10/08 03:07:02;;;;;;;11.73;5.60;;;;;;;;;;6143631;23;20013;-74
2022/10/08 03:09:50;;;;;;;10.40;5.72;;;;;;;;;;6145609;23;20314;-75
2022/10/08 03:12:36;;;;;;;8.93;5.57;;;;;;;;;;6125578;22;20119;-77
2022/10/08 03:15:22;;;;;;;16.48;6.78;;;;;;;;;;6145788;23;20433;-73
2022/10/08 03:18:09;;;;;;;10.35;5.72;;;;;;;;;;6147426;23;20341;-74
2022/10/08 03:20:54;;;;;;;11.43;6.40;;;;;;;;;;6146808;23;20016;-74
2022/10/08 03:23:40;;;;;;;9.00;5.65;;;;;;;;;;6146351;23;20066;-75
2022/10/08 03:26:25;;;;;;;9.85;5.53;;;;;;;;;;6148222;23;20014;-74
2022/10/08 03:29:11;;;;;;;9.95;4.90;;;;;;;;;;6148379;23;20018;-77
2022/10/08 03:31:57;;;;;;;9.02;5.78;;;;;;;;;;6124936;23;20017;-80
2022/10/08 03:34:42;;;;;;;9.80;5.40;;;;;;;;;;6149747;23;20251;-78
2022/10/08 03:37:28;;;;;;;9.15;5.60;;;;;;;;;;6151830;23;20441;-77
2022/10/08 03:40:13;;;;;;;13.40;7.93;;;;;;;;;;6146452;23;20014;-78
2022/10/08 03:42:59;;;;;;;10.82;5.25;;;;;;;;;;6146019;23;20333;-77
2022/10/08 03:45:48;;;;;;;8.52;5.10;;;;;;;;;;6147612;23;20014;-78
2022/10/08 03:48:34;;;;;;;12.27;5.90;;;;;;;;;;6145581;23;20009;-72
2022/10/08 03:51:20;;;;;;;12.73;6.50;;;;;;;;;;6146068;23;20328;-73
2022/10/08 03:54:06;;;;;;;10.10;4.95;;;;;;;;;;6126070;23;20044;-71
2022/10/08 03:56:51;;;;;;;9.23;5.80;;;;;;;;;;6148058;23;20429;-70
2022/10/08 03:59:37;;;;;;;8.68;5.20;;;;;;;;;;6147548;23;20002;-72
2022/10/08 04:02:22;;;;;;;9.13;5.10;;;;;;;;;;6145834;23;20011;-71
2022/10/08 04:05:08;;;;;;;7.57;5.10;;;;;;;;;;6145974;23;20129;-71
2022/10/08 04:07:53;;;;;;;9.90;5.75;;;;;;;;;;6154207;23;20013;-70
2022/10/08 04:10:39;;;;;;;12.60;5.75;;;;;;;;;;6145249;23;20014;-76
2022/10/08 04:13:24;;;;;;;8.13;5.47;;;;;;;;;;6149399;23;20663;-77
2022/10/08 04:16:12;;;;;;;11.38;5.10;;;;;;;;;;6235416;22;20021;-78
2022/10/08 04:18:57;;;;;;;13.07;5.00;;;;;;;;;;6150526;23;20009;-76
2022/10/08 04:21:43;;;;;;;14.65;6.00;;;;;;;;;;6150280;23;20349;-78
2022/10/08 04:24:28;;;;;;;10.50;4.85;;;;;;;;;;6149202;23;20332;-73
2022/10/08 04:27:14;;;;;;;10.00;6.63;;;;;;;;;;6149500;23;20014;-79
2022/10/08 04:29:59;;;;;;;9.32;5.30;;;;;;;;;;6150888;23;20020;-79
2022/10/08 04:32:45;;;;;;;9.00;5.80;;;;;;;;;;6151884;23;20413;-81
2022/10/08 04:35:30;;;;;;;7.18;4.43;;;;;;;;;;6153433;23;20067;-80
2022/10/08 04:38:16;;;;;;;8.90;4.35;;;;;;;;;;6131218;23;20010;-80
2022/10/08 04:41:02;;;;;;;9.25;5.53;;;;;;;;;;6154339;23;20077;-79
2022/10/08 04:43:47;;;;;;;8.95;5.05;;;;;;;;;;6148092;23;20009;-70
2022/10/08 04:46:33;;;;;;;11.27;5.50;;;;;;;;;;6146992;23;20021;-71
2022/10/08 04:49:18;;;;;;;10.45;5.70;;;;;;;;;;6146345;23;20009;-71
2022/10/08 04:52:04;;;;;;;13.82;6.25;;;;;;;;;;6147855;23;20074;-70
2022/10/08 04:54:49;;;;;;;11.50;5.78;;;;;;;;;;6146108;23;20017;-71
2022/10/08 04:57:35;;;;;;;11.25;5.72;;;;;;;;;;6146477;23;20006;-71
2022/10/08 05:00:20;;;;;;;9.98;5.35;;;;;;;;;;6145513;23;20088;-70
2022/10/08 05:03:06;;;;;;;10.23;5.00;;;;;;;;;;6147696;23;20010;-70
2022/10/08 05:05:52;;;;;;;7.63;5.15;;;;;;;;;;6147099;22;20025;-68
2022/10/08 05:08:37;;;;;;;15.80;6.15;;;;;;;;;;6146737;23;20544;-68
2022/10/08 05:11:24;;;;;;;12.63;5.85;;;;;;;;;;6150782;23;20029;-67
2022/10/08 05:14:09;;;;;;;9.05;5.40;;;;;;;;;;6146807;23;20048;-69
2022/10/08 05:16:55;;;;;;;9.65;5.40;;;;;;;;;;6147365;23;20018;-69
2022/10/08 05:19:40;;;;;;;9.98;5.40;;;;;;;;;;6144926;23;20012;-70
2022/10/08 05:22:26;;;;;;;9.98;5.13;;;;;;;;;;6147128;23;20014;-69
2022/10/08 05:25:11;;;;;;;9.25;5.10;;;;;;;;;;6126748;23;20064;-69
2022/10/08 05:27:57;;;;;;;13.73;6.68;;;;;;;;;;6146629;23;20017;-70
2022/10/08 05:30:43;;;;;;;9.70;5.35;;;;;;;;;;6145871;23;20086;-69
2022/10/08 05:33:28;;;;;;;8.98;4.40;;;;;;;;;;6145710;23;20006;-70
2022/10/08 05:36:16;;;;;;;8.52;5.22;;;;;;;;;;6143940;23;20017;-68
2022/10/08 05:39:02;;;;;;;9.55;5.63;;;;;;;;;;6146789;23;20002;-67
2022/10/08 05:41:48;;;;;;;9.50;4.80;;;;;;;;;;6145477;23;20021;-79
2022/10/08 05:44:33;;;;;;;9.05;4.95;;;;;;;;;;6152302;23;20013;-80
2022/10/08 05:47:19;;;;;;;11.52;5.75;;;;;;;;;;6146952;23;20039;-79
2022/10/08 05:50:05;;;;;;;10.27;5.15;;;;;;;;;;6147141;23;20018;-80
2022/10/08 05:52:51;;;;;;;10.68;5.82;;;;;;;;;;6146145;23;20014;-80
2022/10/08 05:55:36;;;;;;;11.77;5.40;;;;;;;;;;6146057;23;20052;-80
2022/10/08 05:58:22;;;;;;;10.43;5.20;;;;;;;;;;6144934;23;20378;-71
2022/10/08 06:01:20;;;;;;;12.15;5.18;;;;;;;;;;6144447;23;20098;-77
2022/10/08 06:04:06;;;;;;;6.82;4.80;;;;;;;;;;6147263;23;20016;-75
2022/10/08 06:06:51;;;;;;;8.68;5.03;;;;;;;;;;6147553;23;20017;-76
2022/10/08 06:09:37;;;;;;;9.98;4.80;;;;;;;;;;6144995;23;20370;-77
2022/10/08 06:12:22;;;;;;;8.35;5.30;;;;;;;;;;6144684;23;20096;-75
2022/10/08 06:15:08;;;;;;;8.75;5.15;;;;;;;;;;6148298;23;20002;-80
2022/10/08 06:17:54;;;;;;;10.77;4.88;;;;;;;;;;6147756;23;20009;-71
2022/10/08 06:20:39;;;;;;;14.48;5.72;;;;;;;;;;6145473;23;20001;-74
2022/10/08 06:23:25;;;;;;;12.02;5.75;;;;;;;;;;6145705;23;20429;-73
2022/10/08 06:26:10;;;;;;;13.05;5.13;;;;;;;;;;6144866;23;20493;-74
2022/10/08 06:28:56;;;;;;;10.57;5.25;;;;;;;;;;6143969;23;20017;-74
2022/10/08 06:31:42;;;;;;;9.90;5.15;;;;;;;;;;6144131;23;20010;-72
2022/10/08 06:34:27;;;;;;;12.63;5.80;;;;;;;;;;6143220;23;20036;-71
2022/10/08 06:37:13;;;;;;;12.50;5.65;;;;;;;;;;6145463;23;20360;-75
2022/10/08 06:39:58;;;;;;;11.23;5.43;;;;;;;;;;6145165;23;20029;-76
2022/10/08 06:42:44;;;;;;;10.25;6.10;;;;;;;;;;6124423;23;20045;-76
2022/10/08 06:45:29;;;;;;;13.82;5.10;;;;;;;;;;6144144;23;20017;-76
2022/10/08 06:48:15;;;;;;;10.05;5.28;;;;;;;;;;6150911;23;20016;-76
2022/10/08 06:51:05;;;;;;;12.35;5.63;;;;;;;;;;6145313;23;20448;-76
2022/10/08 06:53:50;;;;;;;;;;;;;;;;;;6144477;23;20425;-77
2022/10/08 06:56:36;;;;;;;11.57;5.30;;;;;;;;;;6125498;23;19904;-73
2022/10/08 06:59:22;;;;;;;8.45;5.15;;;;;;;;;;6145864;23;20051;-72
2022/10/08 07:02:09;;;;;;;10.65;5.13;;;;;;;;;;6123544;23;20055;-73
2022/10/08 07:04:54;;;;;;;8.95;4.82;;;;;;;;;;6145579;23;20062;-73
2022/10/08 07:07:40;;;;;;;15.88;6.57;;;;;;;;;;6124586;23;20013;-73
2022/10/08 07:10:25;;;;;;;9.10;5.78;;;;;;;;;;6144997;23;20017;-81
2022/10/08 07:13:11;;;;;;;7.18;4.45;;;;;;;;;;6146142;23;20013;-69
2022/10/08 07:16:07;;;;;;;10.63;4.53;;;;;;;;;;6144844;23;20012;-69
2022/10/08 07:18:54;;;;;;;9.18;4.93;;;;;;;;;;6149700;23;20010;-71
2022/10/08 07:21:39;;;;;;;12.48;4.45;;;;;;;;;;6128109;22;20002;-70
2022/10/08 07:24:25;;;;;;;9.32;4.88;;;;;;;;;;6123551;23;20063;-69
2022/10/08 07:27:11;;;;;;;11.23;4.82;;;;;;;;;;6144716;23;20049;-69
2022/10/08 07:29:56;;;;;;;14.50;4.75;;;;;;;;;;6145458;23;20005;-69
2022/10/08 07:32:42;;;;;;;10.50;5.03;;;;;;;;;;6145451;23;20281;-80
2022/10/08 07:35:27;;;;;;;6.85;4.13;;;;;;;;;;6146382;23;20013;-80
2022/10/08 07:38:17;;;;;;;11.80;4.38;;;;;;;;;;6145779;23;20016;-82
2022/10/08 07:41:02;;;;;;;12.25;4.80;;;;;;;;;;6148637;23;20020;-81
2022/10/08 07:43:49;;;;;;;10.50;4.25;;;;;;;;;;6148741;23;20021;-82
2022/10/08 07:46:35;;;;;;;11.60;3.85;;;;;;;;;;6147537;23;20059;-81
2022/10/08 07:49:21;;;;;;;9.68;3.50;;;;;;;;;;6125616;23;20009;-69
2022/10/08 07:52:07;;;;;;;11.50;3.38;;;;;;;;;;6132174;23;20033;-69
2022/10/08 07:54:52;;;;;;;8.75;2.90;;;;;;;;;;6144892;23;20394;-69
2022/10/08 07:57:38;;;;;;;7.55;2.78;;;;;;;;;;6146772;23;20009;-69
2022/10/08 08:00:23;;;;;;;9.32;3.13;;;;;;;;;;6148072;23;20305;-70
2022/10/08 08:03:11;;;;;;;8.10;2.72;;;;;;;;;;6146031;23;20006;-70
2022/10/08 08:06:00;;;;;;;8.68;2.60;;;;;;;;;;6147459;23;20447;-77
2022/10/08 08:08:46;;;;;;;7.45;3.15;;;;;;;;;;6146875;23;20029;-70
2022/10/08 08:11:31;;;;;;;6.15;2.75;;;;;;;;;;6147776;23;20321;-70
2022/10/08 08:14:18;;;;;;;6.53;3.10;;;;;;;;;;6146495;23;20044;-69
2022/10/08 08:17:04;;;;;;;7.40;3.05;;;;;;;;;;6147053;23;20080;-70
2022/10/08 08:19:49;;;;;;;7.43;3.10;;;;;;;;;;6146220;23;20088;-71
2022/10/08 08:22:35;;;;;;;8.70;3.55;;;;;;;;;;6148122;23;20005;-71
2022/10/08 08:25:20;;;;;;;8.77;2.70;;;;;;;;;;6151963;23;20429;-70
2022/10/08 08:28:06;;;;;;;9.55;3.20;;;;;;;;;;6148161;23;20013;-69
2022/10/08 08:30:51;;;;;;;9.45;2.42;;;;;;;;;;6148147;23;20041;-70
2022/10/08 08:33:38;;;;;;;8.50;2.83;;;;;;;;;;6148176;23;20006;-70
2022/10/08 08:36:24;;;;;;;7.88;2.83;;;;;;;;;;6146614;23;20118;-69
2022/10/08 08:39:16;;;;;;;8.95;2.80;;;;;;;;;;6146463;23;20013;-70
2022/10/08 08:42:07;;;;;;;9.63;2.67;;;;;;;;;;6146341;23;20005;-84
2022/10/08 08:44:57;;;;;;;10.43;2.83;;;;;;;;;;6145875;23;20471;-78
2022/10/08 08:47:47;;;;;;;5.40;2.90;;;;;;;;;;6148219;23;20044;-79
2022/10/08 08:50:35;;;;;;;13.18;3.38;;;;;;;;;;6147548;23;20006;-78
2022/10/08 08:53:21;;;;;;;7.57;2.85;;;;;;;;;;6147654;23;20019;-78
2022/10/08 08:56:11;;;;;;;8.70;2.78;;;;;;;;;;6153695;23;20055;-77
2022/10/08 08:59:00;;;;;;;11.38;3.60;;;;;;;;;;6147650;23;20010;-78
2022/10/08 09:01:47;;;;;;;9.15;3.08;;;;;;;;;;6147193;23;20021;-70
2022/10/08 09:04:46;;;;;;;8.23;2.63;;;;;;;;;;6146648;23;20001;-75
2022/10/08 09:07:38;;;;;;;7.18;2.40;;;;;;;;;;6146134;23;20014;-76
2022/10/08 09:10:53;;;;;;;9.02;2.63;;;;;;;;;;6146692;22;20005;-77
2022/10/08 09:13:41;;;;;;;8.48;3.00;;;;;;;;;;6140250;23;20421;-78
2022/10/08 09:16:27;;;;;;;6.30;2.27;;;;;;;;;;6146979;23;20009;-77
2022/10/08 09:19:12;;;;;;;7.30;2.90;;;;;;;;;;6148331;23;20009;-78
2022/10/08 09:21:58;;;;;;;8.05;3.13;;;;;;;;;;6146013;23;20010;-70
2022/10/08 09:24:39;;;;;;;8.57;2.60;;;;;;;;;;6090126;23;20018;-70
2022/10/08 09:27:41;;;;;;;7.10;2.75;;;;;;;;;;6094326;23;20029;-70
2022/10/08 09:30:28;;;;;;;5.43;2.38;;;;;;;;;;6090622;23;20068;-70
2022/10/08 09:33:20;;;;;;;9.40;2.92;;;;;;;;;;6089540;23;20011;-70
2022/10/08 09:36:06;;;;;;;12.93;3.00;;;;;;;;;;6068972;23;20022;-69
2022/10/08 09:38:56;;;;;;;5.55;2.90;;;;;;;;;;6089502;23;20330;-72
2022/10/08 09:41:43;;;;;;;8.40;2.15;;;;;;;;;;6090535;23;20373;-72
2022/10/08 09:44:37;;;;;;;9.52;2.40;;;;;;;;;;6088460;23;20017;-72
2022/10/08 09:47:24;;;;;;;7.15;2.95;;;;;;;;;;6089534;23;20446;-71
2022/10/08 09:50:19;;;;;;;9.88;2.88;;;;;;;;;;6089501;23;20006;-70
2022/10/08 09:53:05;;;;;;;9.10;2.13;;;;;;;;;;6089970;23;20006;-71
2022/10/08 09:56:01;;;;;;;7.60;2.05;;;;;;;;;;6090407;23;20013;-73
2022/10/08 09:58:57;;;;;;;6.18;2.10;;;;;;;;;;6169506;23;20065;-70
2022/10/08 10:01:44;;;;;;;9.68;2.92;;;;;;;;;;6082081;23;20013;-68
2022/10/08 10:04:32;;;;;;;7.38;2.70;;;;;;;;;;6088888;23;20017;-68
2022/10/08 10:07:18;;;;;;;8.07;3.08;;;;;;;;;;6089833;23;20033;-69
2022/10/08 10:10:08;;;;;;;7.05;2.55;;;;;;;;;;6094473;23;20019;-68
2022/10/08 10:13:14;;;;;;;9.43;2.78;;;;;;;;;;6089537;23;20010;-68
2022/10/08 10:16:04;;;;;;;8.32;2.42;;;;;;;;;;6089946;23;20369;-67
2022/10/08 10:18:58;;;;;;;10.40;2.72;;;;;;;;;;6069722;23;20136;-73
2022/10/08 10:21:51;;;;;;;10.73;3.13;;;;;;;;;;6088587;23;20449;-74
2022/10/08 10:24:42;;;;;;;8.60;2.53;;;;;;;;;;6083319;23;20021;-73
2022/10/08 10:27:30;;;;;;;8.65;2.30;;;;;;;;;;6086771;23;20368;-75
2022/10/08 10:30:22;;;;;;;8.98;2.45;;;;;;;;;;6087144;23;20033;-74
2022/10/08 10:33:11;;;;;;;9.55;2.60;;;;;;;;;;6095764;23;20014;-69
2022/10/08 10:35:59;;;;;;;10.57;2.77;;;;;;;;;;6089298;23;20063;-70
2022/10/08 10:38:49;;;;;;;7.22;2.45;;;;;;;;;;6091950;23;20026;-70
2022/10/08 10:41:36;;;;;;;11.88;2.88;;;;;;;;;;6090293;23;20007;-72
2022/10/08 10:44:25;;;;;;;11.13;2.70;;;;;;;;;;6077099;23;20393;-71
2022/10/08 10:47:11;;;;;;;8.23;2.45;;;;;;;;;;6090543;23;20015;-71
2022/10/08 10:49:57;;;;;;;6.28;2.30;;;;;;;;;;6094746;23;20018;-71
2022/10/08 10:52:49;;;;;;;11.52;2.83;;;;;;;;;;6088948;23;20010;-68
2022/10/08 10:55:53;;;;;;;8.88;2.45;;;;;;;;;;6088147;23;20057;-68
2022/10/08 10:58:43;;;;;;;20.35;8.23;;;;;;;;;;6084784;23;20006;-67
2022/10/08 11:01:52;;;;;;;11.98;3.70;;;;;;;;;;6086900;23;20067;-68
2022/10/08 11:04:41;;;;;;;8.93;3.33;;;;;;;;;;6065170;23;20082;-68
2022/10/08 11:07:41;;;;;;;9.03;3.43;;;;;;;;;;6087537;23;20010;-69
2022/10/08 11:10:31;;;;;;;7.13;2.25;;;;;;;;;;6087810;23;20082;-68
2022/10/08 11:13:20;;;;;;;11.52;3.33;;;;;;;;;;6072350;23;20377;-67
2022/10/08 11:16:24;;;;;;;16.13;2.72;;;;;;;;;;6086822;23;20010;-69
2022/10/08 11:19:36;;;;;;;8.52;2.30;;;;;;;;;;6087470;23;20040;-69
2022/10/08 11:22:24;;;;;;;9.65;2.78;;;;;;;;;;6089397;23;20006;-69
2022/10/08 11:25:09;;;;;;;9.85;2.83;;;;;;;;;;6087028;23;20087;-68
2022/10/08 11:28:01;;;;;;;5.18;2.00;;;;;;;;;;6087052;23;20018;-66
2022/10/08 11:30:51;;;;;;;10.73;2.58;;;;;;;;;;6087660;23;20026;-68
2022/10/08 11:33:37;;;;;;;7.75;3.15;;;;;;;;;;6087647;23;20010;-70
2022/10/08 11:36:23;;;;;;;9.45;2.63;;;;;;;;;;6096791;23;20014;-70
2022/10/08 11:39:15;;;;;;;11.30;2.28;;;;;;;;;;6089495;23;20006;-70
2022/10/08 11:42:10;;;;;;;7.90;2.47;;;;;;;;;;6162621;23;20085;-71
2022/10/08 11:45:25;;;;;;;7.13;2.30;;;;;;;;;;6088482;23;20010;-70
2022/10/08 11:48:34;;;;;;;8.73;2.47;;;;;;;;;;6095402;23;20011;-69
2022/10/08 11:51:20;;;;;;;10.13;2.83;;;;;;;;;;6166672;23;20097;-71
2022/10/08 11:54:24;;;;;;;8.43;2.58;;;;;;;;;;6089489;23;20034;-70
2022/10/08 11:57:30;;;;;;;9.82;2.72;;;;;;;;;;6088892;23;20010;-70
2022/10/08 12:00:29;;;;;;;7.32;2.28;;;;;;;;;;6167784;23;20021;-69
2022/10/08 12:03:29;;;;;;;7.43;2.83;;;;;;;;;;6089791;23;20003;-69
2022/10/08 12:06:25;;;;;;;7.40;2.55;;;;;;;;;;6089856;23;20014;-68
2022/10/08 12:09:21;;;;;;;5.13;1.88;;;;;;;;;;6178964;23;20422;-68
2022/10/08 12:12:13;;;;;;;8.00;2.13;;;;;;;;;;6090152;23;20034;-68
2022/10/08 12:14:58;;;;;;;8.73;2.30;;;;;;;;;;6086132;23;20015;-69
2022/10/08 12:17:51;;;;;;;5.45;1.92;;;;;;;;;;6089815;23;20050;-68
2022/10/08 12:20:37;;;;;;;8.02;2.58;;;;;;;;;;6089966;23;20037;-68
2022/10/08 12:23:23;;;;;;;4.97;1.92;;;;;;;;;;6089529;23;20106;-70
2022/10/08 12:26:15;;;;;;;8.50;2.25;;;;;;;;;;6088956;23;20021;-68
2022/10/08 12:29:01;;;;;;;6.85;1.98;;;;;;;;;;6089746;23;20427;-75
2022/10/08 12:31:59;;;;;;;6.22;1.90;;;;;;;;;;6090956;23;20030;-73
2022/10/08 12:34:44;;;;;;;9.90;2.97;;;;;;;;;;6080472;23;20014;-74
2022/10/08 12:37:35;;;;;;;10.02;2.75;;;;;;;;;;6090121;23;20006;-74
2022/10/08 12:40:24;;;;;;;7.70;2.08;;;;;;;;;;6096056;23;20002;-76
2022/10/08 12:43:16;;;;;;;6.60;2.08;;;;;;;;;;6087767;23;20507;-69
2022/10/08 12:46:04;;;;;;;9.68;2.53;;;;;;;;;;6089099;23;20031;-69
2022/10/08 12:48:51;;;;;;;4.43;1.92;;;;;;;;;;6091461;23;20018;-67
2022/10/08 12:51:46;;;;;;;6.07;2.00;;;;;;;;;;6090109;23;20014;-70
2022/10/08 12:54:32;;;;;;;13.05;2.63;;;;;;;;;;6073991;23;20092;-69
2022/10/08 12:57:20;;;;;;;5.65;2.05;;;;;;;;;;6087542;23;20084;-71
2022/10/08 13:00:17;;;;;;;6.78;2.17;;;;;;;;;;6086756;23;20010;-69
2022/10/08 13:03:04;;;;;;;5.20;1.80;;;;;;;;;;6088402;23;20384;-75
2022/10/08 13:05:54;;;;;;;7.95;1.95;;;;;;;;;;6075034;23;20323;-66
2022/10/08 13:08:41;;;;;;;;;;;;;;;;;;6090543;23;20010;-67
2022/10/08 13:11:27;;;;;;;6.75;2.33;;;;;;;;;;6094035;23;19912;-68
2022/10/08 13:14:28;;;;;;;11.20;2.22;;;;;;;;;;6186305;23;20444;-66
2022/10/08 13:17:26;;;;;;;5.05;2.28;;;;;;;;;;6090342;23;20011;-67
2022/10/08 13:20:19;;;;;;;7.82;2.40;;;;;;;;;;6089732;23;20395;-72
2022/10/08 13:23:24;;;;;;;4.45;1.88;;;;;;;;;;6089571;23;20046;-74
2022/10/08 13:26:28;;;;;;;7.68;1.88;;;;;;;;;;6090025;23;20011;-73
2022/10/08 13:29:20;;;;;;;8.50;2.25;;;;;;;;;;6081865;23;20018;-74
2022/10/08 13:32:12;;;;;;;5.93;1.83;;;;;;;;;;6086615;23;20038;-74
2022/10/08 13:34:58;;;;;;;6.85;2.47;;;;;;;;;;6086830;23;20097;-73
2022/10/08 13:37:50;;;;;;;7.82;1.60;;;;;;;;;;6087765;23;20006;-69
2022/10/08 13:40:36;;;;;;;5.68;1.90;;;;;;;;;;6088572;23;20409;-69
2022/10/08 13:43:21;;;;;;;5.50;2.17;;;;;;;;;;6092081;23;20014;-69
2022/10/08 13:46:07;;;;;;;8.00;2.30;;;;;;;;;;6071241;23;20006;-69
2022/10/08 13:48:52;;;;;;;4.28;2.03;;;;;;;;;;6088291;23;20022;-69
2022/10/08 13:51:39;;;;;;;6.82;1.60;;;;;;;;;;6088911;23;20010;-68
2022/10/08 13:54:25;;;;;;;3.58;1.40;;;;;;;;;;6089627;23;20018;-69
2022/10/08 13:57:11;;;;;;;4.03;1.60;;;;;;;;;;6174400;23;20018;-71
2022/10/08 13:59:57;;;;;;;3.65;1.52;;;;;;;;;;6087148;23;20011;-69
2022/10/08 14:02:42;;;;;;;9.98;2.70;;;;;;;;;;6089146;23;20041;-69
2022/10/08 14:05:29;;;;;;;7.15;1.88;;;;;;;;;;6087467;23;20041;-67
2022/10/08 14:08:22;;;;;;;5.07;2.00;;;;;;;;;;6183615;23;20014;-68
2022/10/08 14:11:08;;;;;;;6.22;1.80;;;;;;;;;;6088559;23;20111;-69
2022/10/08 14:13:53;;;;;;;5.55;1.70;;;;;;;;;;6089102;23;20090;-69
2022/10/08 14:16:40;;;;;;;7.57;2.15;;;;;;;;;;6093010;23;20014;-69
2022/10/08 14:19:25;;;;;;;8.60;2.10;;;;;;;;;;6088940;23;20361;-68
2022/10/08 14:22:11;;;;;;;4.25;1.77;;;;;;;;;;6089001;23;20003;-68
2022/10/08 14:24:56;;;;;;;4.97;2.05;;;;;;;;;;6089904;23;20279;-68
2022/10/08 14:27:42;;;;;;;4.90;1.65;;;;;;;;;;6086557;23;20015;-68
2022/10/08 14:30:28;;;;;;;6.60;2.25;;;;;;;;;;6089250;23;20116;-68
2022/10/08 14:33:13;;;;;;;3.53;1.25;;;;;;;;;;6089735;23;20020;-69
2022/10/08 14:35:59;;;;;;;5.70;1.55;;;;;;;;;;6088214;23;20038;-74
2022/10/08 14:38:45;;;;;;;3.60;1.77;;;;;;;;;;6087551;23;20547;-73
2022/10/08 14:41:31;;;;;;;3.40;1.63;;;;;;;;;;6087247;23;20060;-73
2022/10/08 14:44:16;;;;;;;4.68;1.40;;;;;;;;;;6066035;23;20445;-72
2022/10/08 14:47:02;;;;;;;6.15;1.60;;;;;;;;;;6092233;23;20044;-74
2022/10/08 14:49:48;;;;;;;7.45;1.60;;;;;;;;;;6080344;23;20097;-74
2022/10/08 14:52:33;;;;;;;6.13;1.60;;;;;;;;;;6088155;23;20285;-68
2022/10/08 14:55:19;;;;;;;4.53;1.67;;;;;;;;;;6089018;23;20477;-76
2022/10/08 14:58:05;;;;;;;8.48;2.40;;;;;;;;;;6083552;23;20010;-73
2022/10/08 15:00:54;;;;;;;5.05;1.58;;;;;;;;;;6086497;23;20047;-74
2022/10/08 15:03:39;;;;;;;6.15;1.55;;;;;;;;;;6090145;23;20011;-75
2022/10/08 15:06:25;;;;;;;4.82;1.42;;;;;;;;;;6087412;23;20010;-74
2022/10/08 15:09:11;;;;;;;4.57;1.42;;;;;;;;;;6089016;23;20117;-70
2022/10/08 15:11:57;;;;;;;4.50;1.50;;;;;;;;;;6084727;23;20073;-69
2022/10/08 15:14:42;;;;;;;4.97;1.60;;;;;;;;;;6087714;23;20169;-68
2022/10/08 15:17:28;;;;;;;4.07;1.13;;;;;;;;;;6089251;23;20407;-69
2022/10/08 15:20:14;;;;;;;2.00;1.13;;;;;;;;;;6096321;23;20034;-71
2022/10/08 15:23:00;;;;;;;5.40;1.42;;;;;;;;;;6087217;23;20110;-69
2022/10/08 15:25:53;;;;;;;4.53;1.85;;;;;;;;;;6078637;23;20419;-68
2022/10/08 15:28:39;;;;;;;2.47;1.00;;;;;;;;;;6088800;23;20347;-68
2022/10/08 15:31:25;;;;;;;4.45;1.10;;;;;;;;;;6189248;23;20080;-75
2022/10/08 15:34:14;;;;;;;3.85;1.20;;;;;;;;;;6071244;23;20057;-76
2022/10/08 15:36:59;;;;;;;3.35;1.10;;;;;;;;;;6091223;23;20010;-75
2022/10/08 15:39:45;;;;;;;2.63;1.50;;;;;;;;;;6089663;23;20006;-74
2022/10/08 15:42:31;;;;;;;5.25;1.40;;;;;;;;;;6087706;23;20131;-74
2022/10/08 15:45:16;;;;;;;1.70;0.95;;;;;;;;;;6089223;23;20015;-74
2022/10/08 15:48:02;;;;;;;3.33;1.17;;;;;;;;;;6089107;23;20014;-70
2022/10/08 15:50:55;;;;;;;5.28;1.23;;;;;;;;;;6090013;23;20049;-72
2022/10/08 15:53:41;;;;;;;2.58;1.13;;;;;;;;;;6093095;23;20007;-72
2022/10/08 15:56:27;;;;;;;3.35;1.88;;;;;;;;;;6088851;23;20061;-71
2022/10/08 15:59:12;;;;;;;4.28;1.13;;;;;;;;;;6090979;23;20025;-72
2022/10/08 16:01:58;;;;;;;4.18;1.10;;;;;;;;;;6088041;23;20006;-72
2022/10/08 16:04:44;;;;;;;3.45;1.27;;;;;;;;;;6090536;23;20010;-69
2022/10/08 16:07:30;;;;;;;5.95;1.65;;;;;;;;;;6089949;23;20284;-67
2022/10/08 16:10:15;;;;;;;5.65;1.27;;;;;;;;;;6089141;23;20012;-68
2022/10/08 16:13:01;;;;;;;4.35;1.75;;;;;;;;;;6090542;23;20022;-68
2022/10/08 16:15:47;;;;;;;2.30;1.63;;;;;;;;;;6088934;23;20020;-67
2022/10/08 16:18:32;;;;;;;3.72;1.10;;;;;;;;;;6088868;23;20038;-71
2022/10/08 16:21:20;;;;;;;4.18;1.55;;;;;;;;;;6089999;22;20015;-68
2022/10/08 16:24:05;;;;;;;4.80;2.17;;;;;;;;;;6090005;23;20003;-71
2022/10/08 16:26:32;;;;;;;6.97;1.65;;;;;;;;;;6102285;22;20566;-76
2022/10/08 16:29:17;;;;;;;3.17;1.50;;;;;;;;;;6137400;23;20420;-78
2022/10/08 16:32:03;;;;;;;6.82;2.28;;;;;;;;;;6144715;23;20013;-80
2022/10/08 16:34:49;;;;;;;5.78;1.45;;;;;;;;;;6171487;23;20005;-78
2022/10/08 16:37:34;;;;;;;6.60;1.55;;;;;;;;;;6151052;23;20135;-77
2022/10/08 16:40:19;;;;;;;3.15;1.30;;;;;;;;;;6170982;23;20146;-77
2022/10/08 16:43:04;;;;;;;3.80;1.35;;;;;;;;;;6150582;23;20065;-73
2022/10/08 16:45:50;;;;;;;4.25;1.30;;;;;;;;;;6129654;23;20036;-70